Dai25myoujinmaru — JL6201 — position and weather

sailwx.info

Track history (hours):
 
Tides and Currents Weather Stations Pressure Air Temp Water Temp Dewpoint Dewpoint Depression Visibility Wind Speed Wind Dir Waves Ship Positions

Dai25myoujinmaru

Last reported at 2015-Jul-31 14:20 UTC. Time now 2015-Jul-31 17:30 UTC.
Position N 34°18' E 134°60'.

Length 88 m; draft 4.8 m.

Type: Tanker. MMSI: 431500272.

Date/timePositionNaut miles runAvg speedWind from/ knotsBaromVisibWave heightAir tempDewpointWater temp
2015-Jul-31 14:20N 34°18' E 134°60'1013.2
2015-Jul-31 13:33N 34°07' E 135°00'179 9.9
2015-Jul-30 19:24N 34°32' E 138°35'4611.8
2015-Jul-30 15:30N 34°39' E 139°30'1111.6
2015-Jul-30 14:32N 34°44' E 139°42'1312.6
2015-Jul-30 13:31N 34°51' E 139°55'1312.9
2015-Jul-30 12:33N 34°57' E 140°09'1412.2
2015-Jul-30 11:23N 35°04' E 140°24'1112.6
2015-Jul-30 10:33N 35°13' E 140°32'1212.4
2015-Jul-30 09:33N 35°22' E 140°41'1312.6
2015-Jul-30 08:33N 35°32' E 140°51'1311.9
2015-Jul-30 07:30N 35°44' E 140°56'1312.8
2015-Jul-30 06:30N 35°56' E 140°53'1312.7
2015-Jul-30 05:30N 36°08' E 140°48'1212.8
2015-Jul-30 04:32N 36°20' E 140°43'9 1.4
2015-Jul-29 22:10N 36°28' E 140°38'6 9.2
2015-Jul-29 21:33N 36°23' E 140°42'1211.9
2015-Jul-29 20:33N 36°12' E 140°47'1212.0
2015-Jul-29 19:32N 36°01' E 140°52'1611.7
2015-Jul-29 18:12N 35°45' E 140°56'811.5
2015-Jul-29 17:33N 35°38' E 140°56'1211.4
2015-Jul-29 16:30N 35°28' E 140°47'2412.2
2015-Jul-29 14:30N 35°09' E 140°29'1412.2
2015-Jul-29 13:21N 34°60' E 140°16'2312.3
2015-Jul-29 11:26N 34°51' E 139°49'1112.5
2015-Jul-29 10:33N 35°01' E 139°43'1312.6
2015-Jul-29 09:33N 35°13' E 139°46'1211.9
2015-Jul-29 08:33N 35°25' E 139°43'1212.2
2015-Jul-29 07:33N 35°31' E 139°56'5 4.8
2015-Jul-29 06:33N 35°30' E 140°02'0 0.0
2015-Jul-29 05:33N 35°30' E 140°02'0 0.0
2015-Jul-29 04:33N 35°30' E 140°02'2 2.2
2015-Jul-29 03:33N 35°32' E 140°01'3 3.4
2015-Jul-29 02:33N 35°33' E 140°05'0 0.0
2015-Jul-29 01:33N 35°33' E 140°05'0 0.4
2015-Jul-29 00:33N 35°33' E 140°05'4 4.0
2015-Jul-28 23:33N 35°32' E 139°60'0 0.0
2015-Jul-28 22:33N 35°32' E 139°60'0 0.0
2015-Jul-28 21:33N 35°32' E 139°60'0 0.0
2015-Jul-28 20:33N 35°32' E 139°60'0 0.0
2015-Jul-28 19:33N 35°32' E 139°60'0 0.0
2015-Jul-28 18:33N 35°32' E 139°60'9 9.3
2015-Jul-28 17:33N 35°28' E 139°50'1111.0
2015-Jul-28 16:33N 35°17' E 139°46'1211.8
2015-Jul-28 15:33N 35°05' E 139°45'1111.2
2015-Jul-28 14:33N 34°54' E 139°46'1210.7
2015-Jul-28 13:24N 34°54' E 140°01'1111.9
2015-Jul-28 12:31N 34°59' E 140°12'3012.2
2015-Jul-28 10:04N 35°20' E 140°39'912.0
2015-Jul-28 09:19N 35°27' E 140°46'1112.4
2015-Jul-28 08:25N 35°36' E 140°54'3512.2
2015-Jul-28 05:33N 36°10' E 140°47'12 1.5
2015-Jul-27 21:26N 36°22' E 140°43'1211.9
2015-Jul-27 20:28N 36°11' E 140°47'1112.0
2015-Jul-27 19:33N 36°01' E 140°51'3310.8
2015-Jul-27 16:31N 35°28' E 140°47'4112.1
2015-Jul-27 13:07N 34°59' E 140°12'2111.5
2015-Jul-27 11:17N 34°52' E 139°47'912.0
2015-Jul-27 10:29N 35°01' E 139°43'1111.7
2015-Jul-27 09:33N 35°11' E 139°46'1211.8
2015-Jul-27 08:33N 35°23' E 139°42'1111.4
2015-Jul-27 07:33N 35°30' E 139°53'8 7.9
2015-Jul-27 06:33N 35°31' E 140°03'0 0.0
2015-Jul-27 05:33N 35°31' E 140°03'0 0.0
2015-Jul-27 04:33N 35°31' E 140°03'0 0.0
2015-Jul-27 03:33N 35°31' E 140°03'1 1.2
2015-Jul-27 02:33N 35°30' E 140°02'0 0.0
2015-Jul-27 01:33N 35°30' E 140°02'0 0.0
2015-Jul-27 00:33N 35°30' E 140°02'0 0.0
2015-Jul-26 23:33N 35°30' E 140°02'0 0.1
2015-Jul-26 22:33N 35°30' E 140°02'3 3.5
2015-Jul-26 21:33N 35°32' E 139°58'0 0.0
2015-Jul-26 19:31N 35°32' E 139°58'0 0.0
2015-Jul-26 18:31N 35°32' E 139°58'0 0.0
2015-Jul-26 17:31N 35°32' E 139°58'0 0.0
2015-Jul-26 15:31N 35°32' E 139°58'0 0.0
2015-Jul-26 14:31N 35°32' E 139°58'0 0.0
2015-Jul-26 13:31N 35°32' E 139°58'0 0.1
2015-Jul-26 12:31N 35°32' E 139°58'0 0.0
2015-Jul-26 11:31N 35°32' E 139°59'0 0.0
2015-Jul-26 10:31N 35°32' E 139°59'0 0.0
2015-Jul-26 09:31N 35°32' E 139°59'0 0.0
2015-Jul-26 08:31N 35°32' E 139°59'0 0.0
2015-Jul-26 07:34N 35°32' E 139°59'0 0.0
2015-Jul-26 06:34N 35°32' E 139°59'0 0.0
2015-Jul-26 05:34N 35°32' E 139°59'0 0.1
2015-Jul-26 04:34N 35°32' E 139°59'0 0.0
2015-Jul-26 03:33N 35°32' E 139°58'8 8.2
2015-Jul-26 02:34N 35°36' E 139°50'1 1.2
2015-Jul-26 01:34N 35°37' E 139°50'0 0.0
2015-Jul-26 00:33N 35°37' E 139°50'3 3.0
2015-Jul-25 23:34N 35°35' E 139°53'0 0.0
2015-Jul-25 22:34N 35°35' E 139°53'0 0.0
2015-Jul-25 21:34N 35°35' E 139°53'0 0.1
2015-Jul-25 20:34N 35°35' E 139°53'0 0.0
2015-Jul-25 19:34N 35°35' E 139°53'0 0.0
2015-Jul-25 18:34N 35°35' E 139°53'0 0.0
2015-Jul-25 17:33N 35°35' E 139°53'0 0.0
2015-Jul-25 16:34N 35°35' E 139°53'0 0.1
2015-Jul-25 15:34N 35°35' E 139°53'0 0.0
2015-Jul-25 14:33N 35°35' E 139°53'0 0.0
2015-Jul-25 13:34N 35°35' E 139°53'0 0.0
2015-Jul-25 12:34N 35°35' E 139°53'0 0.0
2015-Jul-25 11:34N 35°35' E 139°53'0 0.0
2015-Jul-25 10:34N 35°35' E 139°53'0 0.0
2015-Jul-25 09:34N 35°35' E 139°53'0 0.0
2015-Jul-25 08:34N 35°35' E 139°53'7 6.6
2015-Jul-25 07:33N 35°30' E 139°47'2 1.8
2015-Jul-25 06:34N 35°30' E 139°45'0 0.0
2015-Jul-25 05:34N 35°30' E 139°45'0 0.0
2015-Jul-25 04:34N 35°30' E 139°45'0 0.0
2015-Jul-25 03:34N 35°30' E 139°45'4 4.0
2015-Jul-25 02:34N 35°26' E 139°44'3 3.2
2015-Jul-25 01:34N 35°23' E 139°45'0 0.0
2015-Jul-25 00:34N 35°23' E 139°45'0 0.0
2015-Jul-24 23:34N 35°23' E 139°45'0 0.0
2015-Jul-24 22:34N 35°23' E 139°45'0 0.0
2015-Jul-24 21:33N 35°23' E 139°45'0 0.1
2015-Jul-24 20:34N 35°23' E 139°45'0 0.0
2015-Jul-24 19:34N 35°23' E 139°45'0 0.0
2015-Jul-24 18:34N 35°23' E 139°45'0 0.0
2015-Jul-24 17:34N 35°23' E 139°45'6 5.9
2015-Jul-24 16:34N 35°17' E 139°45'1211.8
2015-Jul-24 15:33N 35°06' E 139°45'1111.2
2015-Jul-24 14:34N 34°54' E 139°46'11 9.3
2015-Jul-24 13:25N 34°52' E 139°58'1213.1
2015-Jul-24 12:32N 34°58' E 140°11'1413.2
2015-Jul-24 11:30N 35°06' E 140°25'1412.4
2015-Jul-24 10:20N 35°17' E 140°36'1012.8
2015-Jul-24 09:33N 35°25' E 140°43'1312.6
2015-Jul-24 08:33N 35°35' E 140°53'1211.7
2015-Jul-24 07:33N 35°46' E 140°56'1512.4
2015-Jul-24 06:23N 36°00' E 140°51'1512.7
2015-Jul-24 05:14N 36°14' E 140°46'2 0.3
2015-Jul-23 22:16N 36°16' E 140°45'912.7
2015-Jul-23 21:33N 36°07' E 140°49'1212.2
2015-Jul-23 20:33N 35°55' E 140°53'1412.1
2015-Jul-23 19:26N 35°42' E 140°57'1011.5
2015-Jul-23 18:33N 35°33' E 140°51'2512.3
2015-Jul-23 16:33N 35°14' E 140°33'4310.7
2015-Jul-23 12:31N 34°56' E 139°45'1111.3
2015-Jul-23 11:33N 35°07' E 139°44'1111.0
2015-Jul-23 10:33N 35°18' E 139°44'1010.4
2015-Jul-23 09:34N 35°28' E 139°46'4 3.8
2015-Jul-23 08:33N 35°32' E 139°46'0 0.0
2015-Jul-23 07:33N 35°32' E 139°46'0 0.0
2015-Jul-23 06:33N 35°32' E 139°46'4 3.6
2015-Jul-23 05:33N 35°29' E 139°42'3 2.6
2015-Jul-23 04:34N 35°27' E 139°43'0 0.0
2015-Jul-23 03:34N 35°27' E 139°43'0 0.0
2015-Jul-23 02:34N 35°27' E 139°43'2 2.2
2015-Jul-23 01:33N 35°27' E 139°45'1111.1
2015-Jul-23 00:34N 35°31' E 139°58'3 3.2
2015-Jul-22 23:33N 35°30' E 140°02'0 0.4
2015-Jul-22 22:33N 35°30' E 140°02'3 3.0
2015-Jul-22 21:33N 35°31' E 139°58'0 0.0
2015-Jul-22 20:34N 35°31' E 139°58'0 0.0
2015-Jul-22 19:33N 35°31' E 139°58'0 0.0
2015-Jul-22 18:34N 35°31' E 139°58'0 0.0
2015-Jul-22 17:34N 35°31' E 139°58'0 0.0
2015-Jul-22 16:33N 35°31' E 139°58'0 0.0
2015-Jul-22 15:33N 35°31' E 139°58'0 0.0
2015-Jul-22 14:33N 35°31' E 139°58'0 0.0
2015-Jul-22 13:33N 35°31' E 139°58'0 0.0
2015-Jul-22 12:33N 35°31' E 139°58'0 0.0
2015-Jul-22 11:33N 35°31' E 139°58'0 0.0
2015-Jul-22 10:33N 35°31' E 139°58'0 0.0
2015-Jul-22 09:33N 35°31' E 139°58'8 7.6
2015-Jul-22 08:33N 35°36' E 139°50'2 1.7
2015-Jul-22 07:34N 35°37' E 139°50'0 0.0
2015-Jul-22 06:34N 35°37' E 139°50'3 2.9
2015-Jul-22 05:34N 35°35' E 139°52'1 0.7
2015-Jul-22 04:33N 35°34' E 139°52'6 6.0
2015-Jul-22 03:34N 35°31' E 139°46'0 0.0
2015-Jul-22 02:34N 35°31' E 139°46'0 0.0
2015-Jul-22 01:34N 35°31' E 139°46'0 0.0
2015-Jul-22 00:33N 35°31' E 139°46'1 0.6
2015-Jul-21 23:34N 35°31' E 139°46'5 5.1
2015-Jul-21 22:33N 35°26' E 139°43'0 0.1
2015-Jul-21 21:34N 35°26' E 139°44'0 0.0
2015-Jul-21 20:33N 35°26' E 139°44'0 0.0
2015-Jul-21 19:33N 35°26' E 139°44'0 0.0
2015-Jul-21 18:33N 35°26' E 139°44'0 0.0
2015-Jul-21 17:34N 35°26' E 139°44'0 0.0
2015-Jul-21 16:33N 35°26' E 139°44'0 0.0
2015-Jul-21 15:33N 35°26' E 139°44'0 0.0
2015-Jul-21 14:33N 35°26' E 139°44'  
Track history (hours):
 
Tides and Currents Weather Stations Pressure Air Temp Water Temp Dewpoint Dewpoint Depression Visibility Wind Speed Wind Dir Waves Ship Positions

Dai25myoujinmaru

Last reported at 2015-Jul-31 14:20 UTC. Time now 2015-Jul-31 17:30 UTC.
Position N 34°18' E 134°60'.

Length 88 m; draft 4.8 m.

Type: Tanker. MMSI: 431500272.

Date/timePositionNaut miles runAvg speedWind from/ knotsBaromVisibWave heightAir tempDewpointWater temp
2015-Jul-31 14:20N 34°18' E 134°60'1013.2
2015-Jul-31 13:33N 34°07' E 135°00'179 9.9
2015-Jul-30 19:24N 34°32' E 138°35'4611.8
2015-Jul-30 15:30N 34°39' E 139°30'1111.6
2015-Jul-30 14:32N 34°44' E 139°42'1312.6
2015-Jul-30 13:31N 34°51' E 139°55'1312.9
2015-Jul-30 12:33N 34°57' E 140°09'1412.2
2015-Jul-30 11:23N 35°04' E 140°24'1112.6
2015-Jul-30 10:33N 35°13' E 140°32'1212.4
2015-Jul-30 09:33N 35°22' E 140°41'1312.6
2015-Jul-30 08:33N 35°32' E 140°51'1311.9
2015-Jul-30 07:30N 35°44' E 140°56'1312.8
2015-Jul-30 06:30N 35°56' E 140°53'1312.7
2015-Jul-30 05:30N 36°08' E 140°48'1212.8
2015-Jul-30 04:32N 36°20' E 140°43'9 1.4
2015-Jul-29 22:10N 36°28' E 140°38'6 9.2
2015-Jul-29 21:33N 36°23' E 140°42'1211.9
2015-Jul-29 20:33N 36°12' E 140°47'1212.0
2015-Jul-29 19:32N 36°01' E 140°52'1611.7
2015-Jul-29 18:12N 35°45' E 140°56'811.5
2015-Jul-29 17:33N 35°38' E 140°56'1211.4
2015-Jul-29 16:30N 35°28' E 140°47'2412.2
2015-Jul-29 14:30N 35°09' E 140°29'1412.2
2015-Jul-29 13:21N 34°60' E 140°16'2312.3
2015-Jul-29 11:26N 34°51' E 139°49'1112.5
2015-Jul-29 10:33N 35°01' E 139°43'1312.6
2015-Jul-29 09:33N 35°13' E 139°46'1211.9
2015-Jul-29 08:33N 35°25' E 139°43'1212.2
2015-Jul-29 07:33N 35°31' E 139°56'5 4.8
2015-Jul-29 06:33N 35°30' E 140°02'0 0.0
2015-Jul-29 05:33N 35°30' E 140°02'0 0.0
2015-Jul-29 04:33N 35°30' E 140°02'2 2.2
2015-Jul-29 03:33N 35°32' E 140°01'3 3.4
2015-Jul-29 02:33N 35°33' E 140°05'0 0.0
2015-Jul-29 01:33N 35°33' E 140°05'0 0.4
2015-Jul-29 00:33N 35°33' E 140°05'4 4.0
2015-Jul-28 23:33N 35°32' E 139°60'0 0.0
2015-Jul-28 22:33N 35°32' E 139°60'0 0.0
2015-Jul-28 21:33N 35°32' E 139°60'0 0.0
2015-Jul-28 20:33N 35°32' E 139°60'0 0.0
2015-Jul-28 19:33N 35°32' E 139°60'0 0.0
2015-Jul-28 18:33N 35°32' E 139°60'9 9.3
2015-Jul-28 17:33N 35°28' E 139°50'1111.0
2015-Jul-28 16:33N 35°17' E 139°46'1211.8
2015-Jul-28 15:33N 35°05' E 139°45'1111.2
2015-Jul-28 14:33N 34°54' E 139°46'1210.7
2015-Jul-28 13:24N 34°54' E 140°01'1111.9
2015-Jul-28 12:31N 34°59' E 140°12'3012.2
2015-Jul-28 10:04N 35°20' E 140°39'912.0
2015-Jul-28 09:19N 35°27' E 140°46'1112.4
2015-Jul-28 08:25N 35°36' E 140°54'3512.2
2015-Jul-28 05:33N 36°10' E 140°47'12 1.5
2015-Jul-27 21:26N 36°22' E 140°43'1211.9
2015-Jul-27 20:28N 36°11' E 140°47'1112.0
2015-Jul-27 19:33N 36°01' E 140°51'3310.8
2015-Jul-27 16:31N 35°28' E 140°47'4112.1
2015-Jul-27 13:07N 34°59' E 140°12'2111.5
2015-Jul-27 11:17N 34°52' E 139°47'912.0
2015-Jul-27 10:29N 35°01' E 139°43'1111.7
2015-Jul-27 09:33N 35°11' E 139°46'1211.8
2015-Jul-27 08:33N 35°23' E 139°42'1111.4
2015-Jul-27 07:33N 35°30' E 139°53'8 7.9
2015-Jul-27 06:33N 35°31' E 140°03'0 0.0
2015-Jul-27 05:33N 35°31' E 140°03'0 0.0
2015-Jul-27 04:33N 35°31' E 140°03'0 0.0
2015-Jul-27 03:33N 35°31' E 140°03'1 1.2
2015-Jul-27 02:33N 35°30' E 140°02'0 0.0
2015-Jul-27 01:33N 35°30' E 140°02'0 0.0
2015-Jul-27 00:33N 35°30' E 140°02'0 0.0
2015-Jul-26 23:33N 35°30' E 140°02'0 0.1
2015-Jul-26 22:33N 35°30' E 140°02'3 3.5
2015-Jul-26 21:33N 35°32' E 139°58'0 0.0
2015-Jul-26 19:31N 35°32' E 139°58'0 0.0
2015-Jul-26 18:31N 35°32' E 139°58'0 0.0
2015-Jul-26 17:31N 35°32' E 139°58'0 0.0
2015-Jul-26 15:31N 35°32' E 139°58'0 0.0
2015-Jul-26 14:31N 35°32' E 139°58'0 0.0
2015-Jul-26 13:31N 35°32' E 139°58'0 0.1
2015-Jul-26 12:31N 35°32' E 139°58'0 0.0
2015-Jul-26 11:31N 35°32' E 139°59'0 0.0
2015-Jul-26 10:31N 35°32' E 139°59'0 0.0
2015-Jul-26 09:31N 35°32' E 139°59'0 0.0
2015-Jul-26 08:31N 35°32' E 139°59'0 0.0
2015-Jul-26 07:34N 35°32' E 139°59'0 0.0
2015-Jul-26 06:34N 35°32' E 139°59'0 0.0
2015-Jul-26 05:34N 35°32' E 139°59'0 0.1
2015-Jul-26 04:34N 35°32' E 139°59'0 0.0
2015-Jul-26 03:33N 35°32' E 139°58'8 8.2
2015-Jul-26 02:34N 35°36' E 139°50'1 1.2
2015-Jul-26 01:34N 35°37' E 139°50'0 0.0
2015-Jul-26 00:33N 35°37' E 139°50'3 3.0
2015-Jul-25 23:34N 35°35' E 139°53'0 0.0
2015-Jul-25 22:34N 35°35' E 139°53'0 0.0
2015-Jul-25 21:34N 35°35' E 139°53'0 0.1
2015-Jul-25 20:34N 35°35' E 139°53'0 0.0
2015-Jul-25 19:34N 35°35' E 139°53'0 0.0
2015-Jul-25 18:34N 35°35' E 139°53'0 0.0
2015-Jul-25 17:33N 35°35' E 139°53'0 0.0
2015-Jul-25 16:34N 35°35' E 139°53'0 0.1
2015-Jul-25 15:34N 35°35' E 139°53'0 0.0
2015-Jul-25 14:33N 35°35' E 139°53'0 0.0
2015-Jul-25 13:34N 35°35' E 139°53'0 0.0
2015-Jul-25 12:34N 35°35' E 139°53'0 0.0
2015-Jul-25 11:34N 35°35' E 139°53'0 0.0
2015-Jul-25 10:34N 35°35' E 139°53'0 0.0
2015-Jul-25 09:34N 35°35' E 139°53'0 0.0
2015-Jul-25 08:34N 35°35' E 139°53'7 6.6
2015-Jul-25 07:33N 35°30' E 139°47'2 1.8
2015-Jul-25 06:34N 35°30' E 139°45'0 0.0
2015-Jul-25 05:34N 35°30' E 139°45'0 0.0
2015-Jul-25 04:34N 35°30' E 139°45'0 0.0
2015-Jul-25 03:34N 35°30' E 139°45'4 4.0
2015-Jul-25 02:34N 35°26' E 139°44'3 3.2
2015-Jul-25 01:34N 35°23' E 139°45'0 0.0
2015-Jul-25 00:34N 35°23' E 139°45'0 0.0
2015-Jul-24 23:34N 35°23' E 139°45'0 0.0
2015-Jul-24 22:34N 35°23' E 139°45'0 0.0
2015-Jul-24 21:33N 35°23' E 139°45'0 0.1
2015-Jul-24 20:34N 35°23' E 139°45'0 0.0
2015-Jul-24 19:34N 35°23' E 139°45'0 0.0
2015-Jul-24 18:34N 35°23' E 139°45'0 0.0
2015-Jul-24 17:34N 35°23' E 139°45'6 5.9
2015-Jul-24 16:34N 35°17' E 139°45'1211.8
2015-Jul-24 15:33N 35°06' E 139°45'1111.2
2015-Jul-24 14:34N 34°54' E 139°46'11 9.3
2015-Jul-24 13:25N 34°52' E 139°58'1213.1
2015-Jul-24 12:32N 34°58' E 140°11'1413.2
2015-Jul-24 11:30N 35°06' E 140°25'1412.4
2015-Jul-24 10:20N 35°17' E 140°36'1012.8
2015-Jul-24 09:33N 35°25' E 140°43'1312.6
2015-Jul-24 08:33N 35°35' E 140°53'1211.7
2015-Jul-24 07:33N 35°46' E 140°56'1512.4
2015-Jul-24 06:23N 36°00' E 140°51'1512.7
2015-Jul-24 05:14N 36°14' E 140°46'2 0.3
2015-Jul-23 22:16N 36°16' E 140°45'912.7
2015-Jul-23 21:33N 36°07' E 140°49'1212.2
2015-Jul-23 20:33N 35°55' E 140°53'1412.1
2015-Jul-23 19:26N 35°42' E 140°57'1011.5
2015-Jul-23 18:33N 35°33' E 140°51'2512.3
2015-Jul-23 16:33N 35°14' E 140°33'4310.7
2015-Jul-23 12:31N 34°56' E 139°45'1111.3
2015-Jul-23 11:33N 35°07' E 139°44'1111.0
2015-Jul-23 10:33N 35°18' E 139°44'1010.4
2015-Jul-23 09:34N 35°28' E 139°46'4 3.8
2015-Jul-23 08:33N 35°32' E 139°46'0 0.0
2015-Jul-23 07:33N 35°32' E 139°46'0 0.0
2015-Jul-23 06:33N 35°32' E 139°46'4 3.6
2015-Jul-23 05:33N 35°29' E 139°42'3 2.6
2015-Jul-23 04:34N 35°27' E 139°43'0 0.0
2015-Jul-23 03:34N 35°27' E 139°43'0 0.0
2015-Jul-23 02:34N 35°27' E 139°43'2 2.2
2015-Jul-23 01:33N 35°27' E 139°45'1111.1
2015-Jul-23 00:34N 35°31' E 139°58'3 3.2
2015-Jul-22 23:33N 35°30' E 140°02'0 0.4
2015-Jul-22 22:33N 35°30' E 140°02'3 3.0
2015-Jul-22 21:33N 35°31' E 139°58'0 0.0
2015-Jul-22 20:34N 35°31' E 139°58'0 0.0
2015-Jul-22 19:33N 35°31' E 139°58'0 0.0
2015-Jul-22 18:34N 35°31' E 139°58'0 0.0
2015-Jul-22 17:34N 35°31' E 139°58'0 0.0
2015-Jul-22 16:33N 35°31' E 139°58'0 0.0
2015-Jul-22 15:33N 35°31' E 139°58'0 0.0
2015-Jul-22 14:33N 35°31' E 139°58'0 0.0
2015-Jul-22 13:33N 35°31' E 139°58'0 0.0
2015-Jul-22 12:33N 35°31' E 139°58'0 0.0
2015-Jul-22 11:33N 35°31' E 139°58'0 0.0
2015-Jul-22 10:33N 35°31' E 139°58'0 0.0
2015-Jul-22 09:33N 35°31' E 139°58'8 7.6
2015-Jul-22 08:33N 35°36' E 139°50'2 1.7
2015-Jul-22 07:34N 35°37' E 139°50'0 0.0
2015-Jul-22 06:34N 35°37' E 139°50'3 2.9
2015-Jul-22 05:34N 35°35' E 139°52'1 0.7
2015-Jul-22 04:33N 35°34' E 139°52'6 6.0
2015-Jul-22 03:34N 35°31' E 139°46'0 0.0
2015-Jul-22 02:34N 35°31' E 139°46'0 0.0
2015-Jul-22 01:34N 35°31' E 139°46'0 0.0
2015-Jul-22 00:33N 35°31' E 139°46'1 0.6
2015-Jul-21 23:34N 35°31' E 139°46'5 5.1
2015-Jul-21 22:33N 35°26' E 139°43'0 0.1
2015-Jul-21 21:34N 35°26' E 139°44'0 0.0
2015-Jul-21 20:33N 35°26' E 139°44'0 0.0
2015-Jul-21 19:33N 35°26' E 139°44'0 0.0
2015-Jul-21 18:33N 35°26' E 139°44'0 0.0
2015-Jul-21 17:34N 35°26' E 139°44'0 0.0
2015-Jul-21 16:33N 35°26' E 139°44'0 0.0
2015-Jul-21 15:33N 35°26' E 139°44'0 0.0
2015-Jul-21 14:33N 35°26' E 139°44'  

Dump ship's entire track history